createdAt,value
2018-06-19T00:02:03.665Z,20.20
2018-06-19T00:04:34.190Z,20.20
2018-06-19T00:07:04.864Z,20.10
2018-06-19T00:09:35.496Z,20.10
2018-06-19T00:14:36.583Z,20.00
2018-06-19T00:22:08.346Z,20.00
2018-06-19T00:27:08.604Z,20.00
2018-06-19T00:29:39.141Z,20.00
2018-06-19T00:32:09.768Z,20.00
2018-06-19T00:34:40.281Z,20.00
2018-06-19T00:39:40.540Z,20.00
2018-06-19T00:42:11.008Z,19.90
2018-06-19T00:44:41.422Z,19.90
2018-06-19T00:47:11.716Z,19.90
2018-06-19T00:49:42.215Z,19.90
2018-06-19T00:52:12.555Z,19.80
2018-06-19T00:54:43.138Z,19.80
2018-06-19T00:57:13.762Z,19.70
2018-06-19T00:59:44.130Z,19.70
2018-06-19T01:02:14.536Z,19.70
2018-06-19T01:04:45.146Z,19.70
2018-06-19T01:07:15.664Z,19.60
2018-06-19T01:09:46.182Z,19.60
2018-06-19T01:12:16.748Z,19.60
2018-06-19T01:14:47.217Z,19.50
2018-06-19T01:17:17.633Z,19.50
2018-06-19T01:19:48.173Z,19.50
2018-06-19T01:22:19.208Z,19.50
2018-06-19T01:24:49.735Z,19.50
2018-06-19T01:27:20.570Z,19.60
2018-06-19T01:29:51.257Z,19.60
2018-06-19T01:32:21.736Z,19.50
2018-06-19T01:34:52.240Z,19.50
2018-06-19T01:37:22.749Z,19.50
2018-06-19T01:39:53.214Z,19.40
2018-06-19T01:42:23.919Z,19.50
2018-06-19T01:47:23.905Z,19.50
2018-06-19T01:52:24.116Z,19.60
2018-06-19T01:54:54.739Z,19.60
2018-06-19T01:57:25.215Z,19.70
2018-06-19T01:59:55.564Z,19.70
2018-06-19T02:02:26.044Z,19.80
2018-06-19T02:04:56.502Z,19.80
2018-06-19T02:07:26.933Z,19.80
2018-06-19T02:09:57.415Z,19.90
2018-06-19T02:12:27.858Z,19.90
2018-06-19T02:17:28.093Z,19.90
2018-06-19T02:19:58.526Z,20.00
2018-06-19T02:22:29.035Z,20.00
2018-06-19T02:24:59.859Z,19.90
2018-06-19T02:27:30.449Z,19.90
2018-06-19T02:30:01.010Z,20.00
2018-06-19T02:32:31.583Z,20.00
2018-06-19T02:35:02.033Z,20.10
2018-06-19T02:37:32.729Z,20.10
2018-06-19T02:40:03.152Z,20.10
2018-06-19T02:42:33.613Z,20.00
2018-06-19T02:45:04.222Z,20.10
2018-06-19T02:52:34.653Z,20.10
2018-06-19T02:55:05.228Z,20.10
2018-06-19T03:00:05.586Z,20.00
2018-06-19T03:05:06.206Z,20.10
2018-06-19T03:10:06.694Z,20.00
2018-06-19T03:12:37.081Z,20.10
2018-06-19T03:15:07.555Z,20.10
2018-06-19T03:17:38.276Z,20.10
2018-06-19T03:20:08.712Z,20.20
2018-06-19T03:22:39.172Z,20.20
2018-06-19T03:25:09.484Z,20.30
2018-06-19T03:27:39.993Z,20.30
2018-06-19T03:30:10.741Z,20.40
2018-06-19T03:32:41.302Z,20.40
2018-06-19T03:35:11.700Z,20.50
2018-06-19T03:37:42.276Z,20.50
2018-06-19T03:40:12.796Z,20.50
2018-06-19T03:42:43.304Z,20.50
2018-06-19T03:45:13.940Z,20.60
2018-06-19T03:47:44.786Z,20.60
2018-06-19T03:50:15.495Z,20.60
2018-06-19T03:52:45.969Z,20.70
2018-06-19T03:55:16.418Z,20.80
2018-06-19T03:57:46.971Z,20.80
2018-06-19T04:00:17.506Z,20.80
2018-06-19T04:02:47.986Z,20.80
2018-06-19T04:05:18.479Z,20.80
2018-06-19T04:07:49.008Z,20.80
2018-06-19T04:10:19.708Z,20.90
2018-06-19T04:12:50.067Z,20.90
2018-06-19T04:15:20.516Z,20.90
2018-06-19T04:17:50.999Z,21.00
2018-06-19T04:20:21.826Z,21.00
2018-06-19T04:22:52.645Z,21.00
2018-06-19T04:27:53.714Z,21.10
2018-06-19T04:30:24.137Z,21.20
2018-06-19T04:32:54.734Z,21.30
2018-06-19T04:35:25.576Z,21.30
2018-06-19T04:37:56.444Z,21.40
2018-06-19T04:40:27.086Z,21.40
2018-06-19T04:42:57.522Z,21.40
2018-06-19T04:45:27.975Z,21.50
2018-06-19T04:47:58.454Z,21.50
2018-06-19T04:50:28.881Z,21.50
2018-06-19T04:52:59.451Z,21.60
2018-06-19T04:55:30.186Z,21.70
2018-06-19T04:58:00.614Z,21.80
2018-06-19T05:00:31.013Z,21.90
2018-06-19T05:03:01.710Z,22.00
2018-06-19T05:08:02.485Z,22.00
2018-06-19T05:10:32.901Z,22.10
2018-06-19T05:13:03.518Z,22.00
2018-06-19T05:18:03.623Z,22.30
2018-06-19T05:20:34.045Z,22.40
2018-06-19T05:23:04.490Z,22.50
2018-06-19T05:25:35.024Z,22.70
2018-06-19T05:28:05.406Z,22.70
2018-06-19T05:30:35.930Z,22.60
2018-06-19T05:33:06.604Z,22.90
2018-06-19T05:35:37.036Z,23.10
2018-06-19T05:38:07.527Z,23.30
2018-06-19T05:40:38.444Z,23.40
2018-06-19T05:43:08.873Z,23.60
2018-06-19T05:45:39.358Z,23.80
2018-06-19T05:48:09.600Z,23.70
2018-06-19T05:53:09.841Z,24.10
2018-06-19T05:58:10.086Z,24.20
2018-06-19T06:00:40.473Z,24.20
2018-06-19T06:03:11.305Z,24.50
2018-06-19T06:05:42.056Z,24.70
2018-06-19T06:08:12.554Z,25.00
2018-06-19T06:10:43.095Z,24.90
2018-06-19T06:13:13.593Z,24.50
2018-06-19T06:15:44.120Z,24.70
2018-06-19T06:18:14.656Z,24.70
2018-06-19T06:20:45.283Z,24.70
2018-06-19T06:23:15.761Z,24.70
2018-06-19T06:25:46.562Z,24.80
2018-06-19T06:28:16.933Z,24.80
2018-06-19T06:30:47.368Z,25.30
2018-06-19T06:33:17.944Z,25.60
2018-06-19T06:35:48.492Z,25.80
2018-06-19T06:38:18.945Z,26.20
2018-06-19T06:40:49.365Z,26.50
2018-06-19T06:43:20.149Z,26.60
2018-06-19T06:45:50.619Z,26.30
2018-06-19T06:48:21.076Z,26.20
2018-06-19T06:50:51.741Z,26.10
2018-06-19T06:53:22.732Z,26.00
2018-06-19T06:55:53.602Z,25.80
2018-06-19T07:00:53.882Z,25.60
2018-06-19T07:03:24.740Z,25.50
2018-06-19T07:05:55.221Z,25.50
2018-06-19T07:08:25.845Z,25.80
2018-06-19T07:10:56.265Z,25.80
2018-06-19T07:13:26.859Z,25.90
2018-06-19T07:15:57.542Z,26.40
2018-06-19T07:18:28.166Z,26.80
2018-06-19T07:20:58.804Z,26.80
2018-06-19T07:23:29.113Z,26.60
2018-06-19T07:25:59.713Z,26.50
2018-06-19T07:28:30.078Z,26.20
2018-06-19T07:31:00.786Z,26.00
2018-06-19T07:33:31.197Z,25.90
2018-06-19T07:36:02.602Z,25.90
2018-06-19T07:38:33.157Z,25.80
2018-06-19T07:41:03.632Z,25.80
2018-06-19T07:43:34.265Z,25.60
2018-06-19T07:46:05.006Z,25.80
2018-06-19T07:48:35.438Z,26.30
2018-06-19T07:51:06.000Z,26.30
2018-06-19T07:56:06.340Z,26.10
2018-06-19T07:58:36.822Z,25.90
2018-06-19T08:01:07.302Z,25.80
2018-06-19T08:03:37.741Z,25.70
2018-06-19T08:06:08.055Z,25.60
2018-06-19T08:08:38.434Z,25.20
2018-06-19T08:11:09.057Z,25.20
2018-06-19T08:13:39.446Z,25.30
2018-06-19T08:16:09.863Z,25.20
2018-06-19T08:18:40.212Z,25.30
2018-06-19T08:26:10.407Z,25.50
2018-06-19T08:28:40.811Z,25.40
2018-06-19T08:31:11.303Z,25.60
2018-06-19T08:36:11.405Z,26.40
2018-06-19T08:38:41.870Z,26.40
2018-06-19T09:57:18.633Z,26.40
2018-06-19T10:04:49.289Z,31.40
2018-06-19T10:07:21.615Z,31.30
2018-06-19T10:09:53.334Z,31.30
2018-06-19T10:12:23.791Z,31.60
2018-06-19T10:14:54.238Z,31.70
2018-06-19T10:19:54.749Z,31.90
2018-06-19T10:22:25.346Z,31.80
2018-06-19T10:24:55.854Z,31.30
2018-06-19T10:27:26.498Z,31.60
2018-06-19T10:29:56.904Z,31.90
2018-06-19T10:32:27.356Z,32.00
2018-06-19T10:34:57.957Z,32.20
2018-06-19T10:37:28.385Z,32.30
2018-06-19T10:39:58.842Z,32.40
2018-06-19T10:42:29.365Z,32.30
2018-06-19T10:44:59.962Z,31.70
2018-06-19T10:47:30.501Z,30.90
2018-06-19T10:52:30.549Z,28.30
2018-06-19T10:55:01.293Z,27.60
2018-06-19T10:57:31.651Z,27.00
2018-06-19T11:00:02.150Z,26.70
2018-06-19T11:02:32.695Z,26.50
2018-06-19T11:05:04.058Z,26.10
2018-06-19T11:07:34.409Z,25.80
2018-06-19T11:10:04.955Z,25.90
2018-06-19T11:12:35.515Z,25.80
2018-06-19T11:15:05.967Z,26.00
2018-06-19T11:17:36.304Z,26.40
2018-06-19T11:20:06.981Z,26.40
2018-06-19T11:22:37.413Z,26.50
2018-06-19T11:25:08.051Z,26.40
2018-06-19T11:27:54.670Z,26.60
2018-06-19T11:30:43.114Z,26.70
2018-06-19T11:33:51.026Z,26.60
2018-06-19T11:36:30.029Z,26.70
2018-06-19T11:39:28.631Z,26.80
2018-06-19T11:42:11.175Z,27.10
2018-06-19T11:45:17.767Z,27.40
2018-06-19T11:47:50.543Z,27.20
2018-06-19T11:50:28.962Z,27.00
2018-06-19T11:53:11.397Z,27.00
2018-06-19T11:55:57.802Z,26.80
2018-06-19T11:58:29.259Z,26.80
2018-06-19T12:01:11.732Z,26.90
2018-06-19T12:03:50.086Z,26.80
2018-06-19T12:06:58.272Z,26.60
2018-06-19T12:09:43.782Z,26.50
2018-06-19T12:14:14.221Z,26.60
2018-06-19T12:17:10.892Z,26.60
2018-06-19T12:19:48.306Z,26.60
2018-06-19T12:25:08.758Z,26.60
2018-06-19T12:28:11.334Z,26.60
2018-06-19T12:30:41.898Z,26.60
2018-06-19T12:33:39.286Z,26.50
2018-06-19T12:36:10.198Z,26.50
2018-06-19T12:38:40.675Z,26.50
2018-06-19T12:41:11.442Z,26.40
2018-06-19T12:43:41.713Z,26.40
2018-06-19T12:46:12.251Z,26.30
2018-06-19T12:48:43.072Z,26.20
2018-06-19T12:56:24.162Z,26.00
2018-06-19T12:58:54.517Z,25.90
2018-06-19T13:01:24.828Z,25.80
2018-06-19T13:04:05.845Z,25.60
2018-06-19T13:06:37.507Z,25.60
2018-06-19T13:09:08.991Z,25.50
2018-06-19T13:11:40.999Z,25.50
2018-06-19T13:14:22.172Z,25.40
2018-06-19T13:17:03.375Z,25.20
2018-06-19T13:19:44.787Z,25.00
2018-06-19T13:24:45.302Z,24.90
2018-06-19T13:27:15.923Z,24.90
2018-06-19T13:29:58.521Z,24.90
2018-06-19T13:32:29.528Z,24.90
2018-06-19T13:34:59.994Z,24.90
2018-06-19T13:37:30.452Z,25.00
2018-06-19T13:41:27.718Z,25.00
2018-06-19T13:44:11.664Z,25.10
2018-06-19T13:46:42.343Z,25.10
2018-06-19T13:49:12.714Z,25.10
2018-06-19T13:51:43.208Z,25.20
2018-06-19T13:54:13.630Z,25.40
2018-06-19T13:57:54.356Z,25.80
2018-06-19T14:00:24.912Z,26.20
2018-06-19T14:02:55.193Z,26.50
2018-06-19T14:05:25.678Z,26.70
2018-06-19T14:08:08.805Z,26.90
2018-06-19T14:10:49.853Z,27.20
2018-06-19T14:13:20.490Z,27.50
2018-06-19T14:15:51.667Z,28.00
2018-06-19T14:18:28.602Z,28.40
2018-06-19T14:20:59.120Z,28.80
2018-06-19T14:23:30.486Z,28.90
2018-06-19T14:28:31.851Z,29.40
2018-06-19T14:33:31.952Z,29.80
2018-06-19T14:36:02.322Z,29.90
2018-06-19T14:38:32.877Z,30.20
2018-06-19T14:43:32.968Z,30.50
2018-06-19T14:48:32.880Z,30.40
2018-06-19T14:51:03.307Z,30.50
2018-06-19T14:53:33.877Z,30.30
2018-06-19T14:56:04.240Z,30.20
2018-06-19T14:58:35.010Z,30.60
2018-06-19T15:01:05.591Z,30.70
2018-06-19T15:03:35.945Z,30.80
2018-06-19T15:06:06.440Z,30.80
2018-06-19T15:11:06.532Z,30.90
2018-06-19T15:13:36.801Z,30.80
2018-06-19T15:18:36.863Z,30.70
2018-06-19T15:21:07.222Z,30.80
2018-06-19T15:23:37.592Z,30.70
2018-06-19T15:26:07.926Z,30.80
2018-06-19T15:28:38.941Z,30.80
2018-06-19T15:31:09.489Z,30.80
2018-06-19T15:33:39.826Z,30.60
2018-06-19T15:36:10.422Z,30.60
2018-06-19T15:38:40.874Z,30.80
2018-06-19T15:41:11.319Z,30.90
2018-06-19T15:43:42.221Z,30.90
2018-06-19T15:46:12.721Z,30.70
2018-06-19T15:48:43.381Z,30.60
2018-06-19T15:51:13.770Z,30.30
2018-06-19T15:53:44.138Z,30.40
2018-06-19T15:58:44.659Z,30.10
2018-06-19T16:01:15.100Z,30.00
2018-06-19T16:03:45.491Z,29.80
2018-06-19T16:06:16.178Z,29.90
2018-06-19T16:08:46.590Z,30.20
2018-06-19T16:11:17.308Z,30.40
2018-06-19T16:13:47.671Z,30.00
2018-06-19T16:16:18.106Z,30.00
2018-06-19T16:18:48.505Z,30.00
2018-06-19T16:21:19.028Z,29.80
2018-06-19T16:23:49.413Z,29.60
2018-06-19T16:26:19.762Z,28.70
2018-06-19T16:28:50.086Z,28.20
2018-06-19T16:31:20.400Z,27.70
2018-06-19T16:33:51.163Z,27.20
2018-06-19T16:36:21.469Z,26.90
2018-06-19T16:38:51.933Z,26.70
2018-06-19T16:41:22.446Z,26.50
2018-06-19T16:43:52.851Z,26.50
2018-06-19T16:46:23.708Z,26.50
2018-06-19T16:51:24.088Z,26.40
2018-06-19T16:53:55.732Z,26.50
2018-06-19T16:56:26.384Z,26.30
2018-06-19T16:58:56.835Z,26.20
2018-06-19T17:01:29.496Z,26.20
2018-06-19T17:04:01.569Z,26.20
2018-06-19T17:06:33.934Z,26.00
2018-06-19T17:09:10.319Z,26.10
2018-06-19T17:11:43.662Z,26.10
2018-06-19T17:14:16.117Z,26.10
2018-06-19T17:16:47.958Z,26.10
2018-06-19T17:19:21.867Z,26.20
2018-06-19T17:21:56.011Z,26.10
2018-06-19T17:24:29.217Z,26.00
2018-06-19T17:27:00.814Z,25.90
2018-06-19T17:29:34.152Z,25.80
2018-06-19T17:32:05.364Z,25.60
2018-06-19T17:34:39.741Z,25.30
2018-06-19T17:37:12.190Z,25.10
2018-06-19T17:42:15.537Z,24.70
2018-06-19T17:44:46.609Z,24.50
2018-06-19T17:49:48.747Z,24.30
2018-06-19T17:52:19.508Z,24.20
2018-06-19T17:54:49.915Z,24.10
2018-06-19T17:57:20.456Z,24.10
2018-06-19T17:59:50.861Z,24.00
2018-06-19T18:02:21.384Z,23.90
2018-06-19T18:04:52.477Z,23.80
2018-06-19T18:07:24.859Z,23.80
2018-06-19T18:09:58.754Z,23.80
2018-06-19T18:12:31.026Z,23.70
2018-06-19T18:15:02.081Z,23.60
2018-06-19T18:17:35.261Z,23.50
2018-06-19T18:20:07.576Z,23.50
2018-06-19T18:22:38.369Z,23.50
2018-06-19T18:25:09.618Z,23.40
2018-06-19T18:27:48.890Z,23.40
2018-06-19T18:30:20.287Z,23.40
2018-06-19T18:32:52.787Z,23.30
2018-06-19T18:37:57.786Z,23.20
2018-06-19T18:40:29.341Z,23.20
2018-06-19T18:43:02.337Z,23.20
2018-06-19T18:45:32.733Z,23.20
2018-06-19T18:50:33.004Z,23.10
2018-06-19T18:53:07.894Z,23.10
2018-06-19T18:55:47.812Z,23.00
2018-06-19T18:58:19.874Z,23.00
2018-06-19T19:00:50.820Z,23.00
2018-06-19T19:03:22.046Z,22.90
2018-06-19T19:05:54.768Z,22.80
2018-06-19T19:08:27.325Z,22.80
2018-06-19T19:10:58.425Z,22.80
2018-06-19T19:13:29.441Z,22.80
2018-06-19T19:16:05.213Z,22.70
2018-06-19T19:18:40.626Z,22.80
2018-06-19T19:21:11.203Z,22.80
2018-06-19T19:23:41.629Z,22.70
2018-06-19T19:26:12.523Z,22.70
2018-06-19T19:31:17.839Z,22.80
2018-06-19T19:33:48.435Z,22.80
2018-06-19T19:36:23.995Z,22.80
2018-06-19T19:38:59.434Z,22.80
2018-06-19T19:41:30.002Z,22.80
2018-06-19T19:44:00.323Z,22.70
2018-06-19T19:46:38.048Z,22.70
2018-06-19T19:49:08.629Z,22.80
2018-06-19T19:51:39.030Z,22.80
2018-06-19T19:54:10.138Z,22.80
2018-06-19T19:56:45.841Z,22.70
2018-06-19T19:59:22.558Z,22.70
2018-06-19T20:01:54.006Z,22.70
2018-06-19T20:06:56.407Z,22.70
2018-06-19T20:09:28.444Z,22.70
2018-06-19T20:12:01.352Z,22.70
2018-06-19T20:14:36.386Z,22.70
2018-06-19T20:17:08.310Z,22.70
2018-06-19T20:19:40.195Z,22.70
2018-06-19T20:24:42.421Z,22.70
2018-06-19T20:29:47.592Z,22.70
2018-06-19T20:32:21.514Z,22.70
2018-06-19T20:34:57.038Z,22.70
2018-06-19T20:37:29.605Z,22.70
2018-06-19T20:40:00.818Z,22.70
2018-06-19T20:42:32.623Z,22.70
2018-06-19T20:45:04.330Z,22.70
2018-06-19T20:47:36.652Z,22.70
2018-06-19T20:50:08.298Z,22.70
2018-06-19T20:52:38.825Z,22.70
2018-06-19T20:57:42.120Z,22.80
2018-06-19T21:00:14.350Z,22.70
2018-06-19T21:02:45.545Z,22.70
2018-06-19T21:05:16.320Z,22.70
2018-06-19T21:07:50.051Z,22.80
2018-06-19T21:10:20.591Z,22.80
2018-06-19T21:12:51.070Z,22.80
2018-06-19T21:15:21.478Z,22.80
2018-06-19T21:17:54.683Z,22.80
2018-06-19T21:20:25.161Z,22.80
2018-06-19T21:22:55.614Z,22.80
2018-06-19T21:27:55.971Z,22.70
2018-06-19T21:30:26.718Z,22.70
2018-06-19T21:32:57.137Z,22.70
2018-06-19T21:35:30.401Z,22.70
2018-06-19T21:38:00.936Z,22.70
2018-06-19T21:40:31.409Z,22.70
2018-06-19T21:43:01.994Z,22.70
2018-06-19T21:45:32.419Z,22.70
2018-06-19T21:48:03.260Z,22.70
2018-06-19T21:53:03.494Z,22.60
2018-06-19T21:55:33.876Z,22.60
2018-06-19T21:58:04.398Z,22.60
2018-06-19T22:00:34.903Z,22.60
2018-06-19T22:03:05.270Z,22.50
2018-06-19T22:05:35.697Z,22.50
2018-06-19T22:08:06.059Z,22.40
2018-06-19T22:13:06.218Z,22.50
2018-06-19T22:15:36.894Z,22.40
2018-06-19T22:18:07.202Z,22.50
2018-06-19T22:20:37.540Z,22.40
2018-06-19T22:23:07.774Z,22.40
2018-06-19T22:25:38.248Z,22.30
2018-06-19T22:28:08.698Z,22.30
2018-06-19T22:30:39.081Z,22.30
2018-06-19T22:33:09.749Z,22.20
2018-06-19T22:35:40.150Z,22.20
2018-06-19T22:38:10.578Z,22.20
2018-06-19T22:40:40.946Z,22.20
2018-06-19T22:43:11.192Z,22.10
2018-06-19T22:45:41.573Z,22.20
2018-06-19T22:48:12.113Z,22.10
2018-06-19T22:50:42.453Z,22.10
2018-06-19T22:53:12.927Z,22.10
2018-06-19T22:55:43.361Z,22.10
2018-06-19T22:58:13.752Z,22.10
2018-06-19T23:00:44.056Z,22.10
2018-06-19T23:03:14.529Z,22.10
2018-06-19T23:05:44.975Z,22.10
2018-06-19T23:08:15.510Z,22.10
2018-06-19T23:10:45.944Z,22.00
2018-06-19T23:15:46.108Z,21.90
2018-06-19T23:18:17.449Z,21.90
2018-06-19T23:20:47.975Z,21.80
2018-06-19T23:23:18.442Z,21.80
2018-06-19T23:25:48.849Z,21.70
2018-06-19T23:28:19.412Z,21.70
2018-06-19T23:30:50.003Z,21.60
2018-06-19T23:33:20.797Z,21.60
2018-06-19T23:35:51.118Z,21.50
2018-06-19T23:38:21.545Z,21.50
2018-06-19T23:40:52.430Z,21.40
2018-06-19T23:43:22.854Z,21.40
2018-06-19T23:45:53.290Z,21.30
2018-06-19T23:48:23.857Z,21.30
2018-06-19T23:50:54.253Z,21.20
2018-06-19T23:53:24.657Z,21.10
2018-06-19T23:58:25.023Z,21.10
